createdAt,value
2023-04-16T00:01:28.405Z,6.41
2023-04-16T00:03:55.760Z,6.36
2023-04-16T00:06:23.206Z,6.30
2023-04-16T00:08:51.556Z,6.19
2023-04-16T00:11:18.269Z,6.14
2023-04-16T00:13:45.004Z,6.08
2023-04-16T00:16:11.751Z,6.02
2023-04-16T00:18:39.342Z,5.98
2023-04-16T00:21:07.083Z,5.92
2023-04-16T00:23:33.987Z,5.85
2023-04-16T00:26:00.780Z,5.80
2023-04-16T00:28:27.688Z,5.69
2023-04-16T00:30:55.186Z,5.62
2023-04-16T00:33:23.892Z,5.59
2023-04-16T00:35:51.176Z,5.52
2023-04-16T00:38:17.976Z,5.54
2023-04-16T00:40:44.670Z,5.50
2023-04-16T00:43:11.403Z,5.46
2023-04-16T00:45:38.553Z,5.42
2023-04-16T00:48:05.972Z,5.39
2023-04-16T00:50:33.347Z,5.28
2023-04-16T00:53:00.705Z,5.24
2023-04-16T00:55:27.546Z,5.21
2023-04-16T00:57:54.301Z,5.13
2023-04-16T01:00:21.519Z,5.10
2023-04-16T01:02:48.480Z,5.05
2023-04-16T01:05:16.440Z,4.98
2023-04-16T01:07:43.188Z,4.92
2023-04-16T01:10:10.072Z,4.88
2023-04-16T01:12:36.780Z,4.86
2023-04-16T01:15:03.745Z,4.83
2023-04-16T01:17:30.476Z,4.82
2023-04-16T01:20:00.606Z,4.82
2023-04-16T01:22:28.360Z,4.78
2023-04-16T01:24:55.062Z,4.78
2023-04-16T01:27:21.858Z,4.81
2023-04-16T01:29:48.637Z,4.80
2023-04-16T01:32:15.517Z,4.84
2023-04-16T01:34:42.206Z,4.85
2023-04-16T01:37:09.028Z,4.89
2023-04-16T01:39:35.704Z,4.92
2023-04-16T01:42:02.581Z,4.97
2023-04-16T01:44:30.897Z,4.99
2023-04-16T01:46:57.787Z,4.99
2023-04-16T01:49:24.766Z,4.93
2023-04-16T01:51:51.687Z,4.91
2023-04-16T01:54:18.430Z,4.84
2023-04-16T01:56:45.310Z,4.89
2023-04-16T01:59:12.400Z,4.88
2023-04-16T02:01:39.410Z,4.86
2023-04-16T02:04:07.456Z,4.79
2023-04-16T02:06:34.330Z,4.76
2023-04-16T02:09:01.062Z,4.72
2023-04-16T02:11:27.821Z,4.67
2023-04-16T02:13:54.592Z,4.62
2023-04-16T02:16:21.432Z,4.61
2023-04-16T02:18:48.170Z,4.62
2023-04-16T02:21:14.893Z,4.59
2023-04-16T02:23:41.637Z,4.57
2023-04-16T02:26:08.364Z,4.52
2023-04-16T02:28:35.148Z,4.52
2023-04-16T02:31:01.847Z,4.55
2023-04-16T02:33:28.721Z,4.57
2023-04-16T02:35:55.524Z,4.60
2023-04-16T02:38:22.260Z,4.61
2023-04-16T02:40:49.101Z,4.60
2023-04-16T02:43:15.852Z,4.61
2023-04-16T02:45:42.712Z,4.59
2023-04-16T02:48:09.993Z,4.56
2023-04-16T02:50:36.681Z,4.52
2023-04-16T02:53:04.376Z,4.49
2023-04-16T02:55:31.131Z,4.45
2023-04-16T02:57:57.842Z,4.41
2023-04-16T03:00:24.623Z,4.39
2023-04-16T03:02:51.579Z,4.32
2023-04-16T03:05:18.508Z,4.23
2023-04-16T03:07:45.386Z,4.21
2023-04-16T03:10:13.353Z,4.18
2023-04-16T03:12:40.114Z,4.15
2023-04-16T03:15:07.278Z,4.10
2023-04-16T03:17:34.160Z,4.09
2023-04-16T03:20:00.970Z,4.08
2023-04-16T03:22:27.736Z,4.05
2023-04-16T03:24:54.511Z,4.05
2023-04-16T03:27:21.272Z,4.07
2023-04-16T03:29:48.007Z,4.05
2023-04-16T03:32:14.784Z,4.01
2023-04-16T03:34:41.474Z,3.91
2023-04-16T03:37:11.921Z,3.89
2023-04-16T03:39:38.864Z,3.87
2023-04-16T03:42:05.607Z,3.83
2023-04-16T03:44:32.303Z,3.81
2023-04-16T03:46:59.223Z,3.78
2023-04-16T03:49:26.121Z,3.79
2023-04-16T03:51:52.857Z,3.77
2023-04-16T03:54:21.293Z,3.78
2023-04-16T03:56:49.257Z,3.76
2023-04-16T03:59:16.011Z,3.77
2023-04-16T04:01:42.783Z,3.79
2023-04-16T04:04:09.951Z,3.83
2023-04-16T04:06:36.745Z,3.87
2023-04-16T04:09:03.962Z,3.94
2023-04-16T04:11:30.677Z,3.98
2023-04-16T04:13:57.405Z,4.03
2023-04-16T04:16:24.141Z,4.10
2023-04-16T04:18:50.853Z,4.18
2023-04-16T04:21:17.610Z,4.22
2023-04-16T04:23:44.484Z,4.25
2023-04-16T04:26:11.344Z,4.30
2023-04-16T04:28:38.006Z,4.30
2023-04-16T04:31:04.886Z,4.29
2023-04-16T04:33:31.701Z,4.32
2023-04-16T04:35:58.475Z,4.39
2023-04-16T04:38:25.396Z,4.47
2023-04-16T04:40:53.022Z,4.56
2023-04-16T04:43:20.372Z,4.69
2023-04-16T04:45:47.400Z,4.74
2023-04-16T04:48:14.149Z,4.87
2023-04-16T04:50:41.530Z,4.89
2023-04-16T04:53:11.457Z,4.86
2023-04-16T04:55:38.917Z,4.86
2023-04-16T04:58:06.550Z,4.86
2023-04-16T05:00:33.776Z,4.84
2023-04-16T05:03:06.109Z,4.85
2023-04-16T05:05:33.037Z,4.83
2023-04-16T05:07:59.843Z,4.83
2023-04-16T05:10:27.269Z,4.87
2023-04-16T05:12:53.995Z,4.89
2023-04-16T05:15:20.737Z,4.94
2023-04-16T05:17:47.510Z,4.98
2023-04-16T05:20:14.585Z,5.03
2023-04-16T05:22:41.436Z,5.07
2023-04-16T05:25:08.567Z,5.11
2023-04-16T05:27:35.377Z,5.16
2023-04-16T05:30:02.467Z,5.21
2023-04-16T05:32:29.263Z,5.30
2023-04-16T05:34:56.006Z,5.42
2023-04-16T05:37:22.702Z,5.52
2023-04-16T05:39:49.413Z,5.60
2023-04-16T05:42:16.297Z,5.63
2023-04-16T05:44:43.042Z,5.70
2023-04-16T05:47:09.710Z,5.69
2023-04-16T05:49:39.197Z,5.75
2023-04-16T05:52:06.261Z,5.81
2023-04-16T05:54:32.928Z,5.84
2023-04-16T05:57:01.120Z,5.87
2023-04-16T05:59:28.114Z,6.01
2023-04-16T06:01:54.865Z,6.13
2023-04-16T06:04:21.630Z,6.21
2023-04-16T06:06:48.545Z,6.29
2023-04-16T06:09:15.382Z,6.39
2023-04-16T06:11:42.170Z,6.48
2023-04-16T06:14:08.889Z,6.58
2023-04-16T06:16:35.549Z,6.64
2023-04-16T06:19:02.369Z,6.71
2023-04-16T06:21:29.354Z,6.78
2023-04-16T06:23:56.218Z,6.92
2023-04-16T06:26:23.074Z,7.03
2023-04-16T06:28:50.378Z,7.15
2023-04-16T06:31:17.174Z,7.20
2023-04-16T06:33:43.935Z,7.31
2023-04-16T06:36:11.541Z,7.39
2023-04-16T06:38:38.507Z,7.42
2023-04-16T06:41:05.383Z,7.56
2023-04-16T06:43:33.511Z,7.75
2023-04-16T06:46:00.277Z,7.91
2023-04-16T06:48:27.436Z,8.05
2023-04-16T06:50:55.000Z,8.23
2023-04-16T06:53:21.797Z,8.46
2023-04-16T06:55:48.472Z,8.68
2023-04-16T06:58:15.224Z,8.91
2023-04-16T07:00:42.008Z,9.18
2023-04-16T07:03:08.881Z,9.37
2023-04-16T07:05:36.063Z,9.60
2023-04-16T07:08:02.834Z,9.82
2023-04-16T07:10:29.600Z,10.01
2023-04-16T07:12:56.356Z,10.09
2023-04-16T07:15:23.125Z,10.07
2023-04-16T07:17:49.914Z,10.10
2023-04-16T07:20:18.277Z,10.19
2023-04-16T07:22:45.058Z,10.35
2023-04-16T07:25:11.756Z,10.37
2023-04-16T07:27:38.509Z,10.40
2023-04-16T07:30:05.932Z,10.56
2023-04-16T07:32:32.756Z,10.80
2023-04-16T07:34:59.592Z,10.93
2023-04-16T07:37:26.400Z,11.04
2023-04-16T07:39:53.195Z,11.25
2023-04-16T07:42:20.846Z,11.47
2023-04-16T07:44:47.638Z,11.69
2023-04-16T07:47:14.288Z,11.91
2023-04-16T07:49:40.975Z,12.12
2023-04-16T07:52:07.679Z,12.39
2023-04-16T07:54:34.520Z,12.74
2023-04-16T07:57:01.295Z,13.02
2023-04-16T07:59:28.108Z,13.29
2023-04-16T08:01:55.088Z,13.73
2023-04-16T08:04:25.730Z,14.12
2023-04-16T08:06:53.808Z,14.54
2023-04-16T08:09:21.653Z,14.83
2023-04-16T08:11:49.876Z,15.12
2023-04-16T08:14:17.196Z,15.15
2023-04-16T08:16:43.930Z,15.15
2023-04-16T08:19:11.022Z,15.26
2023-04-16T08:21:38.038Z,15.22
2023-04-16T08:24:04.802Z,15.22
2023-04-16T08:26:31.475Z,15.22
2023-04-16T08:28:58.217Z,15.12
2023-04-16T08:31:25.038Z,15.22
2023-04-16T08:33:51.811Z,15.35
2023-04-16T08:36:18.586Z,15.60
2023-04-16T08:38:45.282Z,15.89
2023-04-16T08:41:13.208Z,16.24
2023-04-16T08:43:45.082Z,16.31
2023-04-16T08:46:12.460Z,16.42
2023-04-16T08:48:43.188Z,16.64
2023-04-16T08:51:11.171Z,16.80
2023-04-16T08:53:49.349Z,16.82
2023-04-16T08:56:17.338Z,16.85
2023-04-16T08:58:45.385Z,16.99
2023-04-16T09:01:12.203Z,17.35
2023-04-16T09:03:39.431Z,17.49
2023-04-16T09:06:06.553Z,17.40
2023-04-16T09:08:35.748Z,17.30
2023-04-16T09:11:02.560Z,17.34
2023-04-16T09:13:30.648Z,17.31
2023-04-16T09:15:57.821Z,17.23
2023-04-16T09:18:24.784Z,17.13
2023-04-16T09:20:52.127Z,17.12
2023-04-16T09:23:18.887Z,17.11
2023-04-16T09:25:45.625Z,17.19
2023-04-16T09:28:12.492Z,17.56
2023-04-16T09:30:39.281Z,17.93
2023-04-16T09:33:22.354Z,17.99
2023-04-16T09:35:50.858Z,17.56
2023-04-16T09:38:18.021Z,17.22
2023-04-16T09:40:45.192Z,17.18
2023-04-16T09:43:18.988Z,16.74
2023-04-16T09:45:52.655Z,16.77
2023-04-16T09:48:30.011Z,16.62
2023-04-16T09:50:57.902Z,16.78
2023-04-16T09:53:29.659Z,16.90
2023-04-16T09:56:05.035Z,16.80
2023-04-16T09:58:32.377Z,16.65
2023-04-16T10:01:03.277Z,16.64
2023-04-16T10:03:31.892Z,16.51
2023-04-16T10:06:18.502Z,16.50
2023-04-16T10:08:52.688Z,16.41
2023-04-16T10:11:20.495Z,16.25
2023-04-16T10:13:47.382Z,16.08
2023-04-16T10:16:14.220Z,16.14
2023-04-16T10:18:42.853Z,16.27
2023-04-16T10:21:12.959Z,16.49
2023-04-16T10:23:40.349Z,16.59
2023-04-16T10:26:07.205Z,16.46
2023-04-16T10:28:35.540Z,16.62
2023-04-16T10:31:04.128Z,16.45
2023-04-16T10:33:36.470Z,16.52
2023-04-16T10:36:10.439Z,16.61
2023-04-16T10:38:53.756Z,16.77
2023-04-16T10:41:21.140Z,16.89
2023-04-16T10:43:49.584Z,17.05
2023-04-16T10:46:27.322Z,17.41
2023-04-16T10:48:54.788Z,17.85
2023-04-16T10:51:26.082Z,18.52
2023-04-16T10:53:55.048Z,19.11
2023-04-16T10:56:27.922Z,19.81
2023-04-16T10:58:56.298Z,20.32
2023-04-16T11:01:34.059Z,20.72
2023-04-16T11:04:22.281Z,20.98
2023-04-16T11:07:07.595Z,21.22
2023-04-16T11:09:54.583Z,21.51
2023-04-16T11:12:23.767Z,21.69
2023-04-16T11:14:55.202Z,21.90
2023-04-16T11:17:22.393Z,22.48
2023-04-16T11:19:49.287Z,22.87
2023-04-16T11:22:17.610Z,22.87
2023-04-16T11:24:45.676Z,22.85
2023-04-16T11:27:14.010Z,23.28
2023-04-16T11:29:41.471Z,23.84
2023-04-16T11:32:08.300Z,24.46
2023-04-16T11:34:35.165Z,24.83
2023-04-16T11:37:01.948Z,24.73
2023-04-16T11:39:28.607Z,24.44
2023-04-16T11:41:56.011Z,24.47
2023-04-16T11:44:24.467Z,24.12
2023-04-16T11:46:52.237Z,23.54
2023-04-16T11:49:31.181Z,23.08
2023-04-16T11:51:58.516Z,22.77
2023-04-16T11:54:25.975Z,22.42
2023-04-16T11:56:53.686Z,22.08
2023-04-16T11:59:23.137Z,21.90
2023-04-16T12:01:52.040Z,21.78
2023-04-16T12:04:21.389Z,21.85
2023-04-16T12:07:07.940Z,22.10
2023-04-16T12:09:38.521Z,22.25
2023-04-16T12:12:07.058Z,22.32
2023-04-16T12:14:33.839Z,22.39
2023-04-16T12:17:22.407Z,22.55
2023-04-16T12:19:55.749Z,22.27
2023-04-16T12:22:28.307Z,22.55
2023-04-16T12:25:06.841Z,22.66
2023-04-16T12:27:51.482Z,22.94
2023-04-16T12:30:21.157Z,23.37
2023-04-16T12:32:49.988Z,23.99
2023-04-16T12:35:33.255Z,24.25
2023-04-16T12:38:00.665Z,24.09
2023-04-16T12:40:27.586Z,23.74
2023-04-16T12:42:54.905Z,23.85
2023-04-16T12:45:22.296Z,23.89
2023-04-16T12:47:50.536Z,24.03
2023-04-16T12:50:17.523Z,24.27
2023-04-16T12:52:44.377Z,24.44
2023-04-16T12:55:11.104Z,24.14
2023-04-16T12:57:37.840Z,23.75
2023-04-16T13:00:06.637Z,23.44
2023-04-16T13:02:34.123Z,22.81
2023-04-16T13:05:01.476Z,22.61
2023-04-16T13:07:28.315Z,22.09
2023-04-16T13:09:55.101Z,21.60
2023-04-16T13:12:21.862Z,21.50
2023-04-16T13:14:48.587Z,21.52
2023-04-16T13:17:15.484Z,21.30
2023-04-16T13:19:42.171Z,21.16
2023-04-16T13:22:09.409Z,20.73
2023-04-16T13:24:36.242Z,20.63
2023-04-16T13:27:03.092Z,20.47
2023-04-16T13:29:30.145Z,20.26
2023-04-16T13:31:57.365Z,20.25
2023-04-16T13:34:24.072Z,20.08
2023-04-16T13:36:50.758Z,20.09
2023-04-16T13:39:17.591Z,20.06
2023-04-16T13:41:44.383Z,20.28
2023-04-16T13:44:11.196Z,20.58
2023-04-16T13:46:38.064Z,21.03
2023-04-16T13:49:04.762Z,21.25
2023-04-16T13:51:32.116Z,21.25
2023-04-16T13:53:58.891Z,21.02
2023-04-16T13:56:26.017Z,20.84
2023-04-16T13:58:52.798Z,20.59
2023-04-16T14:01:19.785Z,20.38
2023-04-16T14:03:46.729Z,20.21
2023-04-16T14:06:14.990Z,20.06
2023-04-16T14:08:41.648Z,19.96
2023-04-16T14:11:09.159Z,19.84
2023-04-16T14:13:36.385Z,19.79
2023-04-16T14:16:03.164Z,19.76
2023-04-16T14:18:30.038Z,19.69
2023-04-16T14:20:56.837Z,19.59
2023-04-16T14:23:23.550Z,19.59
2023-04-16T14:25:50.269Z,19.50
2023-04-16T14:28:17.127Z,19.44
2023-04-16T14:30:43.902Z,19.29
2023-04-16T14:33:10.671Z,19.17
2023-04-16T14:35:37.454Z,19.15
2023-04-16T14:38:04.223Z,19.15
2023-04-16T14:40:31.277Z,19.08
2023-04-16T14:42:57.938Z,18.89
2023-04-16T14:45:28.995Z,18.79
2023-04-16T14:47:56.023Z,18.84
2023-04-16T14:50:22.855Z,18.83
2023-04-16T14:52:50.790Z,18.82
2023-04-16T14:55:17.535Z,18.87
2023-04-16T14:57:44.322Z,18.86
2023-04-16T15:00:11.993Z,18.78
2023-04-16T15:02:39.007Z,18.74
2023-04-16T15:05:07.823Z,18.74
2023-04-16T15:07:34.559Z,18.68
2023-04-16T15:10:01.325Z,18.62
2023-04-16T15:12:28.081Z,18.68
2023-04-16T15:14:54.869Z,18.57
2023-04-16T15:17:21.706Z,18.44
2023-04-16T15:19:48.551Z,18.44
2023-04-16T15:22:15.561Z,18.43
2023-04-16T15:24:42.275Z,18.43
2023-04-16T15:27:11.546Z,18.36
2023-04-16T15:29:38.763Z,18.32
2023-04-16T15:32:06.990Z,18.24
2023-04-16T15:34:33.713Z,18.18
2023-04-16T15:37:00.642Z,18.09
2023-04-16T15:39:27.475Z,18.07
2023-04-16T15:42:01.432Z,18.12
2023-04-16T15:44:31.040Z,18.19
2023-04-16T15:46:57.831Z,18.18
2023-04-16T15:49:24.850Z,18.25
2023-04-16T15:51:52.417Z,18.32
2023-04-16T15:54:19.307Z,18.40
2023-04-16T15:56:46.669Z,18.52
2023-04-16T15:59:13.692Z,18.54
2023-04-16T16:01:40.903Z,18.64
2023-04-16T16:04:08.199Z,18.66
2023-04-16T16:06:35.248Z,18.59
2023-04-16T16:09:02.038Z,18.55
2023-04-16T16:11:28.761Z,18.41
2023-04-16T16:13:55.505Z,18.35
2023-04-16T16:16:22.333Z,18.25
2023-04-16T16:18:49.049Z,18.08
2023-04-16T16:21:16.136Z,17.94
2023-04-16T16:23:42.899Z,17.76
2023-04-16T16:26:09.689Z,17.58
2023-04-16T16:28:38.956Z,17.42
2023-04-16T16:31:06.902Z,17.20
2023-04-16T16:33:33.743Z,16.97
2023-04-16T16:36:00.584Z,16.81
2023-04-16T16:38:27.665Z,16.66
2023-04-16T16:40:54.446Z,16.52
2023-04-16T16:43:21.446Z,16.42
2023-04-16T16:45:48.503Z,16.33
2023-04-16T16:48:15.313Z,16.19
2023-04-16T16:50:42.109Z,16.09
2023-04-16T16:53:09.138Z,15.95
2023-04-16T16:55:36.046Z,15.84
2023-04-16T16:58:03.449Z,15.67
2023-04-16T17:00:30.579Z,15.53
2023-04-16T17:02:57.504Z,15.42
2023-04-16T17:05:24.390Z,15.30
2023-04-16T17:07:51.121Z,15.19
2023-04-16T17:10:21.042Z,15.08
2023-04-16T17:12:51.161Z,15.00
2023-04-16T17:15:20.580Z,14.89
2023-04-16T17:17:48.445Z,14.79
2023-04-16T17:20:15.712Z,14.71
2023-04-16T17:22:42.695Z,14.59
2023-04-16T17:25:09.741Z,14.50
2023-04-16T17:27:36.725Z,14.32
2023-04-16T17:30:05.464Z,14.24
2023-04-16T17:32:32.886Z,14.15
2023-04-16T17:35:00.948Z,14.04
2023-04-16T17:37:27.860Z,13.97
2023-04-16T17:39:54.580Z,13.91
2023-04-16T17:42:21.685Z,13.86
2023-04-16T17:44:48.401Z,13.83
2023-04-16T17:47:15.084Z,13.80
2023-04-16T17:49:41.919Z,13.76
2023-04-16T17:52:08.692Z,13.71
2023-04-16T17:54:35.950Z,13.65
2023-04-16T17:57:02.934Z,13.64
2023-04-16T17:59:29.610Z,13.62
2023-04-16T18:01:56.734Z,13.59
2023-04-16T18:04:23.696Z,13.56
2023-04-16T18:06:50.905Z,13.55
2023-04-16T18:09:19.197Z,13.55
2023-04-16T18:11:46.046Z,13.53
2023-04-16T18:14:16.673Z,13.51
2023-04-16T18:16:43.449Z,13.51
2023-04-16T18:19:10.258Z,13.48
2023-04-16T18:21:37.025Z,13.46
2023-04-16T18:24:03.880Z,13.41
2023-04-16T18:26:31.171Z,13.38
2023-04-16T18:29:00.427Z,13.31
2023-04-16T18:31:27.927Z,13.26
2023-04-16T18:33:58.101Z,13.24
2023-04-16T18:36:26.817Z,13.20
2023-04-16T18:39:01.628Z,13.21
2023-04-16T18:41:29.626Z,13.17
2023-04-16T18:43:56.594Z,13.19
2023-04-16T18:46:23.562Z,13.21
2023-04-16T18:48:50.314Z,13.15
2023-04-16T18:51:17.169Z,13.18
2023-04-16T18:53:45.679Z,13.17
2023-04-16T18:56:12.711Z,13.12
2023-04-16T18:58:39.405Z,13.10
2023-04-16T19:01:11.016Z,13.07
2023-04-16T19:03:38.810Z,13.06
2023-04-16T19:06:06.254Z,13.02
2023-04-16T19:08:33.105Z,13.00
2023-04-16T19:10:59.999Z,12.97
2023-04-16T19:13:26.775Z,12.97
2023-04-16T19:16:00.857Z,12.95
2023-04-16T19:18:27.845Z,12.92
2023-04-16T19:21:01.433Z,12.90
2023-04-16T19:23:28.422Z,12.88
2023-04-16T19:25:58.308Z,12.84
2023-04-16T19:28:25.523Z,12.78
2023-04-16T19:30:53.238Z,12.73
2023-04-16T19:33:20.418Z,12.70
2023-04-16T19:35:47.662Z,12.67
2023-04-16T19:38:14.473Z,12.64
2023-04-16T19:40:45.040Z,12.63
2023-04-16T19:43:11.745Z,12.61
2023-04-16T19:45:52.405Z,12.60
2023-04-16T19:48:22.060Z,12.58
2023-04-16T19:50:48.902Z,12.53
2023-04-16T19:53:17.185Z,12.53
2023-04-16T19:55:44.050Z,12.51
2023-04-16T19:58:10.898Z,12.49
2023-04-16T20:00:38.900Z,12.48
2023-04-16T20:03:06.225Z,12.49
2023-04-16T20:05:33.152Z,12.48
2023-04-16T20:08:00.002Z,12.46
2023-04-16T20:10:27.727Z,12.48
2023-04-16T20:12:54.409Z,12.50
2023-04-16T20:15:21.101Z,12.51
2023-04-16T20:17:47.878Z,12.49
2023-04-16T20:20:15.858Z,12.51
2023-04-16T20:22:43.016Z,12.51
2023-04-16T20:25:10.113Z,12.51
2023-04-16T20:27:36.878Z,12.51
2023-04-16T20:30:05.459Z,12.51
2023-04-16T20:32:32.368Z,12.50
2023-04-16T20:34:59.765Z,12.49
2023-04-16T20:37:28.784Z,12.46
2023-04-16T20:39:56.094Z,12.39
2023-04-16T20:42:23.069Z,12.33
2023-04-16T20:44:56.149Z,12.28
2023-04-16T20:47:23.027Z,12.24
2023-04-16T20:49:49.898Z,12.22
2023-04-16T20:52:16.826Z,12.22
2023-04-16T20:54:43.681Z,12.18
2023-04-16T20:57:10.663Z,12.13
2023-04-16T20:59:37.504Z,12.09
2023-04-16T21:02:04.390Z,12.06
2023-04-16T21:04:31.679Z,12.03
2023-04-16T21:06:58.522Z,12.03
2023-04-16T21:09:25.345Z,11.97
2023-04-16T21:11:52.069Z,11.99
2023-04-16T21:14:18.798Z,12.00
2023-04-16T21:16:45.556Z,12.03
2023-04-16T21:19:12.397Z,12.04
2023-04-16T21:21:39.380Z,12.02
2023-04-16T21:24:06.548Z,12.02
2023-04-16T21:26:33.214Z,12.03
2023-04-16T21:28:59.996Z,12.02
2023-04-16T21:31:26.746Z,12.01
2023-04-16T21:33:53.636Z,12.01
2023-04-16T21:36:20.507Z,11.97
2023-04-16T21:38:47.323Z,11.91
2023-04-16T21:41:14.113Z,11.86
2023-04-16T21:43:40.748Z,11.84
2023-04-16T21:46:07.453Z,11.82
2023-04-16T21:48:34.202Z,11.78
2023-04-16T21:51:06.342Z,11.79
2023-04-16T21:53:33.479Z,11.75
2023-04-16T21:56:00.493Z,11.74
2023-04-16T21:58:27.286Z,11.74
2023-04-16T22:00:54.179Z,11.71
2023-04-16T22:03:28.322Z,11.70
2023-04-16T22:06:00.969Z,11.69
2023-04-16T22:08:28.942Z,11.68
2023-04-16T22:11:00.223Z,11.68
2023-04-16T22:13:27.812Z,11.68
2023-04-16T22:15:55.025Z,11.67
2023-04-16T22:18:27.088Z,11.66
2023-04-16T22:20:55.023Z,11.66
2023-04-16T22:23:25.540Z,11.66
2023-04-16T22:25:54.311Z,11.62
2023-04-16T22:28:21.170Z,11.60
2023-04-16T22:30:47.855Z,11.56
2023-04-16T22:33:14.639Z,11.55
2023-04-16T22:35:41.519Z,11.53
2023-04-16T22:38:08.283Z,11.50
2023-04-16T22:40:35.054Z,11.46
2023-04-16T22:43:01.736Z,11.47
2023-04-16T22:45:28.595Z,11.46
2023-04-16T22:47:55.323Z,11.46
2023-04-16T22:50:23.196Z,11.48
2023-04-16T22:52:49.986Z,11.49
2023-04-16T22:55:16.820Z,11.48
2023-04-16T22:57:43.655Z,11.47
2023-04-16T23:00:15.855Z,11.44
2023-04-16T23:02:43.229Z,11.42
2023-04-16T23:05:10.778Z,11.39
2023-04-16T23:07:37.685Z,11.36
2023-04-16T23:10:04.818Z,11.32
2023-04-16T23:12:31.514Z,11.29
2023-04-16T23:14:58.344Z,11.24
2023-04-16T23:17:25.198Z,11.19
2023-04-16T23:19:52.130Z,11.12
2023-04-16T23:22:18.880Z,11.09
2023-04-16T23:24:45.776Z,11.00
2023-04-16T23:27:12.610Z,10.93
2023-04-16T23:29:39.310Z,10.87
2023-04-16T23:32:06.048Z,10.84
2023-04-16T23:34:32.741Z,10.88
2023-04-16T23:36:59.453Z,10.89
2023-04-16T23:39:26.208Z,10.87
2023-04-16T23:41:52.948Z,10.90
2023-04-16T23:44:19.693Z,10.91
2023-04-16T23:46:46.412Z,10.91
2023-04-16T23:49:13.318Z,10.88
2023-04-16T23:51:40.222Z,10.88
2023-04-16T23:54:07.049Z,10.86
2023-04-16T23:56:33.856Z,10.82
2023-04-16T23:59:00.772Z,10.83
